Bolingbrook, Illinois
Current Conditions -  °F | °C
As of 1:35 PM on Thursday 27 Nov 2014 (Local Time) from KLOT Reporting Station
Light Snow Light Snow  
Wind Chill: 16°   Ceiling: 2400
Heat Index: 25°   Visibility: 10mi
Dew Point: 17°   Wind: 9mph
Humidity: 72%   Direction: 350°N
Pressure: 30.35"   Gusts: NA
Location:  41.7°N, 88.08°W
Report Text: KLOT 271935Z AUTO 35008KT 10SM -SN OVC024 M04/M08 A3035 RMK AO2 T10381081
Loading
Personal Weather Stations






























Interactive Weather Map New forecast layout! Learn more

10-Day Weather Forecast

Advertisements
Track Severe Weather on mobile